Welcome to Northern Hawkes Bay. New Zealand.
PWS Header
      nz Flag



Hit Counter


W3C Valid W3C Valid logo


    Wairoa

Select any of the Stations below to visit their websites.










Historic Data from Weather Underground
Select the location of interest below. Wairoa is the default. Please have patience, this Data is slow to load in.
Northern Hawkes Bay Historical Data
Daily Summary for May 13, 2017 Units:  Metric    English   Both
« Previous Day
Next Day »
Daily Weekly Monthly Yearly Custom
  High: Low: Average:
Temperature: 14.6 °C 9.6 °C 11.2 °C
Dew Point: 11.8 °C 7.7 °C 9.5 °C
Humidity: 99% 79% 89%
Wind Speed: 40.4km/h 7.2km/h 23.8km/h
Wind Gust: 60.2km/h - -
Wind- - SW
Pressure: 1022.6 hPa 1008.4 hPa -
Precipitation: 17.5 mm    
Historical Graphs
 
 
Tabular Data for May 13, 2017
Time Temperature Dew Point Pressure Wind Wind Speed Wind Gust Humidity Rainfall Rate (Hourly) solar
00:00 14.4 °C 11.4 °C 1008.4 hPa SSW 33.1 km/h 48.9 km/h 82% 0.0 mm 0 W/m2
00:05 14.5 °C 11.3 °C 1008.4 hPa SSW 20.9 km/h 50.0 km/h 81% 0.0 mm 0 W/m2
00:10 14.5 °C 11.4 °C 1008.4 hPa SSW 35.6 km/h 50.0 km/h 82% 0.0 mm 0 W/m2
00:15 14.6 °C 11.4 °C 1008.4 hPa SW 34.3 km/h 57.6 km/h 81% 0.0 mm 0 W/m2
00:20 14.6 °C 11.4 °C 1008.7 hPa SSW 31.7 km/h 57.6 km/h 81% 0.0 mm 0 W/m2
00:25 14.4 °C 11.2 °C 1008.7 hPa SSW 29.4 km/h 57.6 km/h 81% 0.0 mm 0 W/m2
00:30 14.4 °C 11.0 °C 1008.7 hPa SSW 33.1 km/h 56.2 km/h 80% 0.0 mm 0 W/m2
00:35 14.2 °C 10.6 °C 1008.7 hPa SSW 29.4 km/h 56.2 km/h 79% 0.0 mm 0 W/m2
00:40 14.2 °C 10.8 °C 1008.7 hPa SSW 29.4 km/h 50.0 km/h 80% 0.0 mm 0 W/m2
00:45 14.3 °C 10.9 °C 1009.0 hPa SSW 24.5 km/h 50.0 km/h 80% 0.0 mm 0 W/m2
00:50 14.4 °C 11.0 °C 1008.7 hPa SSW 34.3 km/h 58.7 km/h 80% 0.0 mm 0 W/m2
00:55 14.6 °C 11.4 °C 1009.0 hPa SSW 30.6 km/h 58.7 km/h 81% 0.0 mm 0 W/m2
01:00 14.1 °C 11.4 °C 1009.0 hPa SSW 23.3 km/h 58.7 km/h 84% 0.0 mm 0 W/m2
01:06 13.5 °C 11.6 °C 1009.0 hPa SW 19.5 km/h 50.0 km/h 88% 0.0 mm 0 W/m2
01:11 14.0 °C 11.3 °C 1009.0 hPa SW 30.6 km/h 40.4 km/h 84% 0.0 mm 0 W/m2
01:16 14.4 °C 11.6 °C 1009.0 hPa SSW 20.9 km/h 43.9 km/h 83% 0.0 mm 0 W/m2
01:17 14.5 °C 11.8 °C 1009.0 hPa SSW 31.7 km/h 48.9 km/h 84% 0.0 mm 0 W/m2
01:22 13.6 °C 11.5 °C 1009.0 hPa SW 23.3 km/h 48.9 km/h 87% 0.0 mm 0 W/m2
01:27 14.1 °C 11.6 °C 1009.0 hPa SW 28.0 km/h 48.9 km/h 85% 0.0 mm 0 W/m2
01:32 14.5 °C 11.4 °C 1009.0 hPa SSW 37.8 km/h 51.5 km/h 82% 0.0 mm 0 W/m2
01:37 14.2 °C 11.2 °C 1009.4 hPa SSW 37.8 km/h 51.5 km/h 82% 0.0 mm 0 W/m2
01:42 14.2 °C 11.0 °C 1009.4 hPa SSW 37.8 km/h 60.2 km/h 81% 0.0 mm 0 W/m2
01:47 14.1 °C 11.1 °C 1009.4 hPa SSW 25.6 km/h 60.2 km/h 82% 0.0 mm 0 W/m2
01:52 13.9 °C 11.6 °C 1009.7 hPa SSW 35.6 km/h 52.6 km/h 86% 0.0 mm 0 W/m2
01:57 13.6 °C 11.3 °C 1009.7 hPa SSW 29.4 km/h 55.0 km/h 86% 0.0 mm 0 W/m2
02:02 13.6 °C 11.5 °C 1009.7 hPa SSW 29.4 km/h 55.0 km/h 87% 0.0 mm 0 W/m2
02:07 13.7 °C 11.4 °C 1009.7 hPa SSW 31.7 km/h 56.2 km/h 86% 0.0 mm 0 W/m2
02:12 13.6 °C 11.1 °C 1009.7 hPa SW 21.9 km/h 56.2 km/h 85% 0.0 mm 0 W/m2
02:17 13.5 °C 11.4 °C 1010.0 hPa SW 36.7 km/h 58.7 km/h 87% 0.0 mm 0 W/m2
02:23 12.5 °C 10.9 °C 1010.0 hPa SW 33.1 km/h 58.7 km/h 90% 0.0 mm 0 W/m2
02:28 12.3 °C 11.1 °C 1010.0 hPa SW 33.1 km/h 51.5 km/h 92% 0.0 mm 0 W/m2
02:45 11.7 °C 11.1 °C 1010.4 hPa SW 24.5 km/h 56.2 km/h 96% 0.3 mm 0 W/m2
02:50 11.6 °C 11.2 °C 1010.4 hPa SW 23.3 km/h 46.5 km/h 97% 0.3 mm 0 W/m2
02:55 11.5 °C 11.1 °C 1010.4 hPa SW 15.8 km/h 46.5 km/h 97% 0.5 mm 0 W/m2
03:00 11.2 °C 10.7 °C 1010.4 hPa SW 18.3 km/h 46.5 km/h 97% 0.5 mm 0 W/m2
03:05 11.2 °C 10.9 °C 1010.4 hPa SW 13.4 km/h 60.2 km/h 98% 1.3 mm 0 W/m2
03:10 11.1 °C 10.8 °C 1010.4 hPa SW 40.4 km/h 60.2 km/h 98% 1.8 mm 0 W/m2
03:15 11.0 °C 10.7 °C 1010.4 hPa SW 29.4 km/h 47.9 km/h 98% 2.3 mm 0 W/m2
03:20 10.8 °C 10.7 °C 1010.4 hPa SW 28.0 km/h 47.9 km/h 99% 2.8 mm 0 W/m2
03:25 10.9 °C 10.8 °C 1010.4 hPa SW 31.7 km/h 47.9 km/h 99% 2.8 mm 0 W/m2
03:30 11.0 °C 10.6 °C 1010.4 hPa SW 28.0 km/h 52.6 km/h 97% 3.3 mm 0 W/m2
03:35 10.8 °C 10.5 °C 1010.7 hPa SW 21.9 km/h 52.6 km/h 98% 3.6 mm 0 W/m2
03:40 10.6 °C 10.3 °C 1010.7 hPa SW 23.3 km/h 52.6 km/h 98% 3.8 mm 0 W/m2
03:45 10.4 °C 10.1 °C 1010.7 hPa SW 28.0 km/h 52.6 km/h 98% 4.3 mm 0 W/m2
03:50 10.2 °C 10.1 °C 1010.7 hPa SW 21.9 km/h 48.9 km/h 99% 4.3 mm 0 W/m2
03:55 10.3 °C 10.2 °C 1011.1 hPa SW 30.6 km/h 43.9 km/h 99% 4.3 mm 0 W/m2
04:00 10.3 °C 10.2 °C 1011.1 hPa SW 31.7 km/h 50.0 km/h 99% 4.3 mm 0 W/m2
04:05 10.2 °C 10.1 °C 1011.1 hPa SW 21.9 km/h 50.0 km/h 99% 4.3 mm 0 W/m2
04:10 10.2 °C 10.1 °C 1011.1 hPa SW 30.6 km/h 52.6 km/h 99% 3.6 mm 0 W/m2
04:15 10.2 °C 9.9 °C 1011.1 hPa SW 29.4 km/h 52.6 km/h 98% 3.0 mm 0 W/m2
04:20 10.4 °C 9.9 °C 1011.1 hPa SW 33.1 km/h 46.5 km/h 97% 2.8 mm 0 W/m2
04:25 10.6 °C 9.8 °C 1011.1 hPa SW 24.5 km/h 47.9 km/h 95% 2.8 mm 0 W/m2
04:30 10.8 °C 10.1 °C 1010.7 hPa SW 25.6 km/h 47.9 km/h 95% 2.0 mm 0 W/m2
04:35 10.8 °C 10.1 °C 1011.1 hPa West 31.7 km/h 54.1 km/h 95% 1.5 mm 0 W/m2
04:40 10.7 °C 9.8 °C 1011.4 hPa WSW 35.6 km/h 57.6 km/h 94% 1.3 mm 0 W/m2
04:45 10.4 °C 9.3 °C 1011.4 hPa SW 19.5 km/h 57.6 km/h 93% 1.3 mm 0 W/m2
04:50 10.5 °C 9.4 °C 1011.4 hPa SW 29.4 km/h 55.0 km/h 93% 1.3 mm 0 W/m2
04:55 10.6 °C 9.2 °C 1011.4 hPa WSW 23.3 km/h 55.0 km/h 91% 1.0 mm 0 W/m2
05:00 10.6 °C 8.9 °C 1011.7 hPa WSW 24.5 km/h 51.5 km/h 89% 0.5 mm 0 W/m2
05:03 10.4 °C 8.3 °C 1011.4 hPa SW 20.9 km/h 51.5 km/h 87% 0.3 mm 0 W/m2
05:08 10.4 °C 8.3 °C 1011.7 hPa SW 31.7 km/h 48.9 km/h 87% 0.3 mm 0 W/m2
05:13 10.5 °C 8.3 °C 1011.7 hPa SW 34.3 km/h 55.0 km/h 86% 0.3 mm 0 W/m2
05:18 10.2 °C 8.1 °C 1011.7 hPa SW 36.7 km/h 57.6 km/h 87% 0.3 mm 0 W/m2
05:23 10.4 °C 8.3 °C 1011.7 hPa WSW 29.4 km/h 57.6 km/h 87% 0.3 mm 0 W/m2
05:28 10.7 °C 8.4 °C 1011.7 hPa WSW 36.7 km/h 52.6 km/h 86% 0.3 mm 0 W/m2
05:33 10.9 °C 8.5 °C 1012.1 hPa WSW 29.4 km/h 52.6 km/h 85% 0.5 mm 0 W/m2
05:38 10.8 °C 8.4 °C 1012.1 hPa SW 34.3 km/h 52.6 km/h 85% 0.5 mm 0 W/m2
05:43 10.6 °C 8.6 °C 1012.4 hPa SW 29.4 km/h 55.0 km/h 87% 0.3 mm 0 W/m2
05:48 10.5 °C 8.4 °C 1012.4 hPa SW 28.0 km/h 55.0 km/h 87% 0.3 mm 0 W/m2
05:53 10.4 °C 8.2 °C 1012.4 hPa SW 27.0 km/h 60.2 km/h 86% 0.5 mm 0 W/m2
05:58 10.5 °C 8.1 °C 1012.4 hPa WSW 37.8 km/h 60.2 km/h 85% 0.5 mm 0 W/m2
06:03 10.6 °C 7.8 °C 1012.8 hPa SW 29.4 km/h 54.1 km/h 83% 0.5 mm 0 W/m2
06:08 10.6 °C 8.0 °C 1012.8 hPa SW 31.7 km/h 51.5 km/h 84% 0.5 mm 0 W/m2
06:13 10.3 °C 7.9 °C 1012.8 hPa SW 24.5 km/h 52.6 km/h 85% 0.5 mm 0 W/m2
06:18 10.1 °C 8.1 °C 1012.8 hPa SW 18.3 km/h 52.6 km/h 87% 1.0 mm 0 W/m2
06:23 10.1 °C 8.2 °C 1012.8 hPa SW 31.7 km/h 42.8 km/h 88% 1.0 mm 0 W/m2
06:28 10.4 °C 8.3 °C 1013.1 hPa WSW 29.4 km/h 48.9 km/h 87% 1.0 mm 0 W/m2
06:33 10.5 °C 8.4 °C 1013.1 hPa WSW 14.8 km/h 48.9 km/h 87% 1.0 mm 0 W/m2
06:38 10.3 °C 8.2 °C 1013.1 hPa SW 30.6 km/h 46.5 km/h 87% 1.0 mm 0 W/m2
06:43 10.2 °C 8.3 °C 1013.4 hPa SW 27.0 km/h 45.4 km/h 88% 1.0 mm 0 W/m2
06:48 10.3 °C 8.4 °C 1013.1 hPa SW 24.5 km/h 45.4 km/h 88% 1.0 mm 0 W/m2
06:53 10.6 °C 8.6 °C 1013.4 hPa SW 25.6 km/h 52.6 km/h 87% 1.0 mm 0 W/m2
06:58 10.4 °C 8.5 °C 1013.4 hPa SW 24.5 km/h 52.6 km/h 88% 1.3 mm 0 W/m2
07:03 10.3 °C 8.6 °C 1013.4 hPa SW 19.5 km/h 46.5 km/h 89% 1.3 mm 0 W/m2
07:08 10.5 °C 8.8 °C 1013.8 hPa SW 19.5 km/h 50.0 km/h 89% 1.3 mm 1 W/m2
07:13 10.5 °C 8.4 °C 1013.8 hPa WSW 23.3 km/h 50.0 km/h 87% 1.3 mm 0 W/m2
07:18 10.3 °C 8.2 °C 1013.8 hPa WSW 19.5 km/h 50.0 km/h 87% 1.0 mm 1 W/m2
07:23 10.4 °C 8.2 °C 1014.1 hPa WSW 31.7 km/h 43.9 km/h 86% 1.3 mm 2 W/m2
07:28 10.2 °C 7.9 °C 1014.1 hPa SW 29.4 km/h 43.9 km/h 86% 1.3 mm 5 W/m2
07:33 10.4 °C 8.2 °C 1014.1 hPa WSW 27.0 km/h 47.9 km/h 86% 1.0 mm 7 W/m2
07:38 10.5 °C 8.3 °C 1014.4 hPa WSW 27.0 km/h 47.9 km/h 86% 1.0 mm 9 W/m2
07:43 10.4 °C 7.8 °C 1014.4 hPa WSW 31.7 km/h 46.5 km/h 84% 1.0 mm 11 W/m2
07:48 10.2 °C 7.8 °C 1014.4 hPa WSW 21.9 km/h 47.9 km/h 85% 1.0 mm 15 W/m2
07:53 10.2 °C 8.1 °C 1014.4 hPa WSW 25.6 km/h 47.9 km/h 87% 0.5 mm 31 W/m2
07:58 10.2 °C 8.1 °C 1014.4 hPa WSW 14.8 km/h 45.4 km/h 87% 0.3 mm 34 W/m2
08:03 10.2 °C 8.3 °C 1014.8 hPa WSW 27.0 km/h 45.4 km/h 88% 0.3 mm 20 W/m2
08:08 10.2 °C 8.1 °C 1014.8 hPa WSW 31.7 km/h 54.1 km/h 87% 0.3 mm 19 W/m2
08:13 10.1 °C 8.1 °C 1015.1 hPa WSW 31.7 km/h 54.1 km/h 87% 0.3 mm 29 W/m2
08:18 9.9 °C 8.3 °C 1015.1 hPa WSW 28.0 km/h 52.6 km/h 90% 0.3 mm 35 W/m2
08:23 9.6 °C 8.4 °C 1015.5 hPa WSW 28.0 km/h 45.4 km/h 92% 0.3 mm 20 W/m2
08:28 9.6 °C 8.5 °C 1015.5 hPa SW 19.5 km/h 45.4 km/h 93% 0.3 mm 27 W/m2
08:33 9.7 °C 8.8 °C 1015.5 hPa SSW 19.5 km/h 45.4 km/h 94% 0.3 mm 33 W/m2
08:38 9.7 °C 8.8 °C 1015.5 hPa SW 23.3 km/h 41.7 km/h 94% 0.5 mm 28 W/m2
08:43 9.6 °C 8.8 °C 1015.5 hPa SW 21.9 km/h 41.7 km/h 95% 1.0 mm 32 W/m2
08:48 9.8 °C 9.2 °C 1015.5 hPa SW 24.5 km/h 43.9 km/h 96% 1.0 mm 52 W/m2
08:53 10.0 °C 9.1 °C 1015.1 hPa WSW 25.6 km/h 45.4 km/h 94% 1.3 mm 40 W/m2
08:58 10.2 °C 9.3 °C 1015.1 hPa WSW 18.3 km/h 45.4 km/h 94% 1.3 mm 50 W/m2
09:03 10.3 °C 9.4 °C 1015.5 hPa WSW 25.6 km/h 42.8 km/h 94% 1.3 mm 23 W/m2
09:08 10.2 °C 9.1 °C 1015.5 hPa WSW 30.6 km/h 52.6 km/h 93% 1.3 mm 60 W/m2
09:13 10.1 °C 8.9 °C 1015.5 hPa SW 25.6 km/h 52.6 km/h 92% 1.3 mm 47 W/m2
09:18 10.1 °C 8.9 °C 1015.5 hPa SW 25.6 km/h 45.4 km/h 92% 1.3 mm 57 W/m2
09:23 10.2 °C 8.8 °C 1015.8 hPa WSW 27.0 km/h 43.9 km/h 91% 1.0 mm 43 W/m2
09:28 10.3 °C 8.7 °C 1015.8 hPa WSW 23.3 km/h 43.9 km/h 90% 1.3 mm 49 W/m2
09:33 10.2 °C 8.6 °C 1016.1 hPa SW 20.9 km/h 50.0 km/h 90% 1.5 mm 64 W/m2
09:38 10.1 °C 8.9 °C 1015.8 hPa SW 28.0 km/h 50.0 km/h 92% 1.5 mm 55 W/m2
09:43 10.3 °C 9.2 °C 1016.1 hPa SW 20.9 km/h 37.8 km/h 93% 1.3 mm 90 W/m2
09:48 10.5 °C 9.3 °C 1015.8 hPa SW 20.9 km/h 41.7 km/h 92% 1.3 mm 93 W/m2
09:53 10.8 °C 9.2 °C 1016.1 hPa SW 20.9 km/h 45.4 km/h 90% 1.0 mm 119 W/m2
09:58 11.0 °C 8.9 °C 1016.1 hPa WSW 28.0 km/h 45.4 km/h 87% 1.0 mm 121 W/m2
10:03 10.9 °C 9.0 °C 1016.1 hPa WNW 33.1 km/h 47.9 km/h 88% 1.0 mm 122 W/m2
10:08 10.8 °C 8.9 °C 1016.1 hPa WSW 33.1 km/h 52.6 km/h 88% 1.0 mm 129 W/m2
10:13 10.9 °C 9.0 °C 1016.1 hPa SW 23.3 km/h 52.6 km/h 88% 1.3 mm 85 W/m2
10:18 10.8 °C 9.1 °C 1016.1 hPa SW 21.9 km/h 50.0 km/h 89% 1.3 mm 140 W/m2
10:23 10.8 °C 9.1 °C 1016.1 hPa SW 19.5 km/h 45.4 km/h 89% 1.3 mm 105 W/m2
10:28 10.8 °C 9.1 °C 1016.1 hPa SW 28.0 km/h 46.5 km/h 89% 1.0 mm 85 W/m2
10:47 10.5 °C 9.1 °C 1016.8 hPa SW 28.0 km/h 45.4 km/h 91% 0.3 mm 155 W/m2
10:52 11.0 °C 9.4 °C 1016.8 hPa SW 23.3 km/h 41.7 km/h 90% 0.3 mm 169 W/m2
10:57 11.1 °C 9.2 °C 1016.8 hPa SW 27.0 km/h 43.9 km/h 88% 0.3 mm 129 W/m2
11:02 10.9 °C 9.2 °C 1016.8 hPa SW 27.0 km/h 45.4 km/h 89% 0.3 mm 135 W/m2
11:07 10.8 °C 9.2 °C 1017.2 hPa SW 15.8 km/h 45.4 km/h 90% 0.3 mm 142 W/m2
11:12 10.8 °C 9.6 °C 1017.2 hPa SW 28.0 km/h 45.4 km/h 92% 0.3 mm 126 W/m2
11:17 10.6 °C 9.3 °C 1017.2 hPa SW 25.6 km/h 40.4 km/h 92% 0.3 mm 146 W/m2
11:22 10.9 °C 9.8 °C 1017.2 hPa SW 17.2 km/h 41.7 km/h 93% 0.3 mm 156 W/m2
11:27 10.8 °C 9.7 °C 1017.2 hPa SW 18.3 km/h 41.7 km/h 93% 0.3 mm 186 W/m2
11:32 10.9 °C 10.0 °C 1016.8 hPa SW 23.3 km/h 35.6 km/h 94% 0.3 mm 183 W/m2
11:37 11.0 °C 9.9 °C 1016.8 hPa WSW 18.3 km/h 34.3 km/h 93% 0.3 mm 222 W/m2
11:42 11.4 °C 10.2 °C 1016.8 hPa WSW 18.3 km/h 34.3 km/h 92% 0.3 mm 374 W/m2
11:47 11.6 °C 10.3 °C 1016.8 hPa WSW 25.6 km/h 37.8 km/h 92% 0.3 mm 162 W/m2
11:52 11.7 °C 10.3 °C 1016.8 hPa WSW 18.3 km/h 37.8 km/h 91% 0.3 mm 194 W/m2
11:57 11.6 °C 9.8 °C 1016.8 hPa SW 20.9 km/h 34.3 km/h 89% 0.3 mm 123 W/m2
12:02 11.3 °C 9.7 °C 1016.8 hPa SW 25.6 km/h 42.8 km/h 90% 0.3 mm 146 W/m2
12:07 11.1 °C 9.5 °C 1016.8 hPa SW 14.8 km/h 42.8 km/h 90% 0.5 mm 84 W/m2
12:12 11.1 °C 9.7 °C 1016.8 hPa SW 20.9 km/h 36.7 km/h 91% 0.3 mm 94 W/m2
12:17 11.2 °C 9.4 °C 1016.8 hPa SW 29.4 km/h 39.3 km/h 89% 0.3 mm 96 W/m2
12:22 11.2 °C 9.3 °C 1016.8 hPa SW 17.2 km/h 39.3 km/h 88% 0.5 mm 110 W/m2
12:27 11.1 °C 9.3 °C 1016.8 hPa WSW 20.9 km/h 39.3 km/h 89% 0.5 mm 88 W/m2
12:32 11.1 °C 9.5 °C 1016.8 hPa WSW 18.3 km/h 39.3 km/h 90% 1.0 mm 161 W/m2
12:37 11.2 °C 9.8 °C 1016.8 hPa SW 15.8 km/h 39.3 km/h 91% 1.3 mm 87 W/m2
12:42 11.1 °C 9.7 °C 1016.8 hPa WSW 23.3 km/h 39.3 km/h 91% 1.3 mm 86 W/m2
12:47 11.0 °C 9.6 °C 1016.8 hPa SW 20.9 km/h 39.3 km/h 91% 1.5 mm 85 W/m2
12:52 11.2 °C 9.6 °C 1016.8 hPa SW 19.5 km/h 39.3 km/h 90% 1.5 mm 94 W/m2
12:57 11.2 °C 9.4 °C 1016.8 hPa SW 20.9 km/h 46.5 km/h 89% 1.5 mm 154 W/m2
13:02 11.5 °C 9.6 °C 1016.8 hPa SW 31.7 km/h 46.5 km/h 88% 1.5 mm 186 W/m2
13:07 11.5 °C 9.4 °C 1016.8 hPa SW 24.5 km/h 45.4 km/h 87% 1.3 mm 214 W/m2
13:12 11.6 °C 9.5 °C 1017.2 hPa SW 24.5 km/h 42.8 km/h 87% 1.3 mm 194 W/m2
13:22 11.5 °C 9.6 °C 1017.2 hPa WSW 23.3 km/h 34.3 km/h 88% 0.5 mm 104 W/m2
13:45 11.5 °C 9.6 °C 1017.2 hPa WSW 23.3 km/h 34.3 km/h 88% 0.0 mm 104 W/m2
13:50 10.6 °C 10.0 °C 1017.5 hPa SW 13.4 km/h 29.4 km/h 96% 1.3 mm 71 W/m2
13:55 10.8 °C 10.2 °C 1017.5 hPa SW 18.3 km/h 39.3 km/h 96% 1.3 mm 82 W/m2
14:00 11.1 °C 10.0 °C 1017.8 hPa SW 30.6 km/h 47.9 km/h 93% 1.3 mm 121 W/m2
14:05 11.1 °C 9.8 °C 1017.5 hPa SW 23.3 km/h 47.9 km/h 92% 1.3 mm 130 W/m2
14:10 11.1 °C 9.8 °C 1017.8 hPa SW 20.9 km/h 47.9 km/h 92% 1.3 mm 103 W/m2
14:15 11.3 °C 9.9 °C 1017.8 hPa SW 23.3 km/h 42.8 km/h 91% 1.3 mm 83 W/m2
14:20 11.2 °C 9.6 °C 1017.8 hPa SW 24.5 km/h 47.9 km/h 90% 1.3 mm 59 W/m2
14:25 11.0 °C 9.8 °C 1018.2 hPa SW 18.3 km/h 47.9 km/h 92% 1.5 mm 74 W/m2
14:30 10.8 °C 9.9 °C 1018.2 hPa SW 27.0 km/h 37.8 km/h 94% 1.8 mm 71 W/m2
14:35 10.6 °C 9.8 °C 1018.2 hPa SW 21.9 km/h 41.7 km/h 95% 2.0 mm 72 W/m2
14:40 10.6 °C 9.8 °C 1018.5 hPa SW 14.8 km/h 41.7 km/h 95% 2.0 mm 69 W/m2
14:45 10.7 °C 10.1 °C 1018.2 hPa SW 17.2 km/h 30.6 km/h 96% 2.0 mm 81 W/m2
14:50 10.8 °C 10.3 °C 1018.2 hPa SW 27.0 km/h 39.3 km/h 97% 1.3 mm 85 W/m2
14:55 10.9 °C 10.4 °C 1018.2 hPa SSW 24.5 km/h 39.3 km/h 97% 1.3 mm 94 W/m2
15:00 10.9 °C 10.3 °C 1018.2 hPa SW 15.8 km/h 34.3 km/h 96% 1.3 mm 85 W/m2
15:05 11.1 °C 10.2 °C 1018.2 hPa WSW 14.8 km/h 33.1 km/h 94% 1.3 mm 94 W/m2
15:10 11.3 °C 10.2 °C 1018.2 hPa SW 18.3 km/h 31.7 km/h 93% 1.3 mm 158 W/m2
15:15 11.8 °C 10.6 °C 1018.2 hPa SW 21.9 km/h 34.3 km/h 92% 1.3 mm 250 W/m2
15:20 12.0 °C 10.1 °C 1018.2 hPa SW 15.8 km/h 34.3 km/h 88% 1.3 mm 75 W/m2
15:25 11.7 °C 9.9 °C 1018.2 hPa SW 17.2 km/h 34.3 km/h 89% 1.0 mm 88 W/m2
15:30 11.6 °C 10.0 °C 1018.5 hPa SW 20.9 km/h 34.3 km/h 90% 0.5 mm 38 W/m2
15:35 11.8 °C 10.4 °C 1018.8 hPa SSW 18.3 km/h 34.3 km/h 91% 0.5 mm 33 W/m2
15:40 11.0 °C 9.9 °C 1018.5 hPa South 14.8 km/h 36.7 km/h 93% 0.5 mm 34 W/m2
15:46 11.0 °C 9.9 °C 1018.8 hPa South 33.1 km/h 43.9 km/h 93% 0.5 mm 27 W/m2
15:51 11.0 °C 9.6 °C 1018.8 hPa SSW 24.5 km/h 47.9 km/h 91% 0.5 mm 45 W/m2
15:56 10.9 °C 9.7 °C 1018.5 hPa SSW 21.9 km/h 47.9 km/h 92% 1.0 mm 49 W/m2
16:01 10.8 °C 9.2 °C 1018.5 hPa SSW 24.5 km/h 45.4 km/h 90% 1.0 mm 45 W/m2
16:06 11.1 °C 9.0 °C 1018.8 hPa SSW 23.3 km/h 39.3 km/h 87% 1.0 mm 48 W/m2
16:11 11.6 °C 9.5 °C 1018.8 hPa SW 15.8 km/h 39.3 km/h 87% 1.0 mm 63 W/m2
16:16 11.6 °C 9.0 °C 1018.8 hPa SW 21.9 km/h 39.3 km/h 84% 1.0 mm 56 W/m2
16:21 11.9 °C 8.9 °C 1018.8 hPa SW 27.0 km/h 43.9 km/h 82% 1.0 mm 64 W/m2
16:26 11.9 °C 8.6 °C 1018.8 hPa SW 25.6 km/h 43.9 km/h 80% 1.0 mm 43 W/m2
16:31 12.3 °C 9.1 °C 1018.8 hPa SW 27.0 km/h 43.9 km/h 81% 0.5 mm 19 W/m2
16:37 11.8 °C 8.8 °C 1019.2 hPa SW 21.9 km/h 42.8 km/h 82% 0.5 mm 12 W/m2
16:42 11.8 °C 9.0 °C 1019.2 hPa SW 14.8 km/h 41.7 km/h 83% 0.5 mm 12 W/m2
16:47 11.4 °C 8.8 °C 1019.2 hPa SW 17.2 km/h 41.7 km/h 84% 0.3 mm 9 W/m2
16:52 11.4 °C 8.9 °C 1019.5 hPa SW 18.3 km/h 35.6 km/h 85% 0.3 mm 6 W/m2
16:57 11.1 °C 9.0 °C 1019.5 hPa SSW 14.8 km/h 30.6 km/h 87% 0.0 mm 4 W/m2
17:02 11.0 °C 9.4 °C 1019.2 hPa SW 29.4 km/h 40.4 km/h 90% 0.0 mm 3 W/m2
17:07 10.8 °C 9.4 °C 1019.5 hPa SW 23.3 km/h 40.4 km/h 91% 0.0 mm 1 W/m2
17:12 11.3 °C 9.6 °C 1019.5 hPa SW 24.5 km/h 37.8 km/h 89% 0.0 mm 0 W/m2
17:17 11.1 °C 9.2 °C 1019.5 hPa SW 17.2 km/h 40.4 km/h 88% 0.3 mm 0 W/m2
17:22 10.8 °C 9.6 °C 1019.5 hPa SSW 18.3 km/h 40.4 km/h 92% 0.3 mm 0 W/m2
17:27 10.4 °C 9.3 °C 1019.5 hPa SSW 20.9 km/h 31.7 km/h 93% 0.3 mm 0 W/m2
17:32 10.9 °C 9.8 °C 1019.5 hPa SW 19.5 km/h 35.6 km/h 93% 0.3 mm 0 W/m2
17:37 11.1 °C 9.7 °C 1019.5 hPa SW 29.4 km/h 39.3 km/h 91% 0.3 mm 0 W/m2
17:42 11.1 °C 9.5 °C 1019.9 hPa SSW 29.4 km/h 40.4 km/h 90% 0.3 mm 0 W/m2
17:47 10.3 °C 9.1 °C 1019.9 hPa SW 15.8 km/h 40.4 km/h 92% 0.3 mm 0 W/m2
17:52 11.0 °C 9.6 °C 1019.9 hPa SW 19.5 km/h 40.4 km/h 91% 0.3 mm 0 W/m2
17:57 10.9 °C 9.7 °C 1020.2 hPa SW 24.5 km/h 31.7 km/h 92% 0.3 mm 0 W/m2
18:02 10.8 °C 9.7 °C 1020.2 hPa WSW 7.2 km/h 31.7 km/h 93% 0.3 mm 0 W/m2
18:08 10.7 °C 9.6 °C 1020.5 hPa SW 20.9 km/h 41.7 km/h 93% 0.5 mm 0 W/m2
18:13 10.5 °C 9.6 °C 1020.2 hPa SW 20.9 km/h 41.7 km/h 94% 0.5 mm 0 W/m2
18:18 10.6 °C 9.8 °C 1020.2 hPa SW 25.6 km/h 40.4 km/h 95% 0.5 mm 0 W/m2
18:23 10.6 °C 10.0 °C 1020.5 hPa SW 15.8 km/h 39.3 km/h 96% 0.5 mm 0 W/m2
18:28 10.7 °C 9.9 °C 1020.5 hPa SW 18.3 km/h 36.7 km/h 95% 0.5 mm 0 W/m2
18:33 10.7 °C 9.9 °C 1020.5 hPa SW 20.9 km/h 30.6 km/h 95% 0.5 mm 0 W/m2
18:38 10.8 °C 10.1 °C 1020.5 hPa SW 20.9 km/h 31.7 km/h 95% 0.5 mm 0 W/m2
18:43 10.6 °C 9.7 °C 1020.9 hPa SW 31.7 km/h 42.8 km/h 94% 0.5 mm 0 W/m2
18:48 10.8 °C 9.9 °C 1020.9 hPa SW 18.3 km/h 42.8 km/h 94% 0.5 mm 0 W/m2
18:53 10.7 °C 9.9 °C 1020.9 hPa SW 28.0 km/h 42.8 km/h 95% 0.5 mm 0 W/m2
18:58 10.6 °C 10.0 °C 1020.9 hPa SW 21.9 km/h 37.8 km/h 96% 0.5 mm 0 W/m2
19:03 11.0 °C 10.2 °C 1020.9 hPa SW 8.7 km/h 37.8 km/h 95% 0.3 mm 0 W/m2
19:08 10.6 °C 9.8 °C 1021.2 hPa SW 15.8 km/h 33.1 km/h 95% 0.3 mm 0 W/m2
19:13 10.6 °C 9.8 °C 1020.9 hPa SW 17.2 km/h 34.3 km/h 95% 0.5 mm 0 W/m2
19:18 10.6 °C 10.0 °C 1020.9 hPa SW 25.6 km/h 35.6 km/h 96% 0.3 mm 0 W/m2
19:23 11.0 °C 10.2 °C 1021.2 hPa SW 20.9 km/h 39.3 km/h 95% 0.3 mm 0 W/m2
19:28 10.5 °C 10.1 °C 1020.9 hPa SW 23.3 km/h 39.3 km/h 97% 0.3 mm 0 W/m2
19:33 10.6 °C 10.0 °C 1021.2 hPa SW 19.5 km/h 30.6 km/h 96% 0.3 mm 0 W/m2
19:38 10.6 °C 9.8 °C 1021.2 hPa SW 30.6 km/h 39.3 km/h 95% 0.5 mm 0 W/m2
19:43 10.3 °C 9.6 °C 1021.2 hPa SW 18.3 km/h 39.3 km/h 95% 0.5 mm 0 W/m2
19:48 10.6 °C 9.8 °C 1021.2 hPa SSW 14.8 km/h 39.3 km/h 95% 0.5 mm 0 W/m2
19:53 10.7 °C 9.9 °C 1021.2 hPa SW 19.5 km/h 40.4 km/h 95% 0.5 mm 0 W/m2
19:58 10.8 °C 9.9 °C 1021.2 hPa SSW 18.3 km/h 40.4 km/h 94% 0.5 mm 0 W/m2
20:03 10.7 °C 9.4 °C 1021.6 hPa SSW 29.4 km/h 35.6 km/h 92% 0.5 mm 0 W/m2
20:08 10.8 °C 9.6 °C 1021.6 hPa SW 23.3 km/h 35.6 km/h 92% 1.0 mm 0 W/m2
20:13 10.6 °C 9.5 °C 1021.6 hPa SW 18.3 km/h 34.3 km/h 93% 0.5 mm 0 W/m2
20:18 10.7 °C 9.6 °C 1021.6 hPa SW 21.9 km/h 40.4 km/h 93% 0.5 mm 0 W/m2
20:23 10.3 °C 9.2 °C 1021.6 hPa SW 23.3 km/h 40.4 km/h 93% 0.5 mm 0 W/m2
20:28 10.7 °C 9.6 °C 1021.6 hPa SW 15.8 km/h 34.3 km/h 93% 0.5 mm 0 W/m2
20:33 10.9 °C 9.5 °C 1021.6 hPa SW 23.3 km/h 35.6 km/h 91% 0.5 mm 0 W/m2
20:38 11.1 °C 9.0 °C 1021.6 hPa SW 20.9 km/h 35.6 km/h 87% 0.5 mm 0 W/m2
20:43 11.1 °C 8.7 °C 1021.6 hPa SW 27.0 km/h 35.6 km/h 85% 0.5 mm 0 W/m2
20:48 11.3 °C 8.7 °C 1021.6 hPa SW 28.0 km/h 36.7 km/h 84% 0.5 mm 0 W/m2
20:53 11.3 °C 8.9 °C 1021.9 hPa SW 17.2 km/h 36.7 km/h 85% 0.5 mm 0 W/m2
20:58 11.2 °C 8.8 °C 1021.6 hPa SW 27.0 km/h 36.7 km/h 85% 0.5 mm 0 W/m2
21:03 11.3 °C 8.9 °C 1021.9 hPa SW 12.2 km/h 33.1 km/h 85% 0.5 mm 0 W/m2
21:08 11.2 °C 8.8 °C 1021.9 hPa SW 19.5 km/h 35.6 km/h 85% 0.3 mm 0 W/m2
21:13 11.3 °C 8.5 °C 1021.9 hPa SW 19.5 km/h 39.3 km/h 83% 0.3 mm 0 W/m2
21:18 11.3 °C 8.5 °C 1021.9 hPa SW 24.5 km/h 43.9 km/h 83% 0.3 mm 0 W/m2
21:23 11.3 °C 8.5 °C 1021.9 hPa SW 30.6 km/h 43.9 km/h 83% 0.3 mm 0 W/m2
21:28 11.3 °C 8.5 °C 1021.9 hPa SSW 23.3 km/h 39.3 km/h 83% 0.3 mm 0 W/m2
21:33 11.3 °C 8.7 °C 1021.9 hPa SW 13.4 km/h 36.7 km/h 84% 0.3 mm 0 W/m2
21:38 11.2 °C 8.6 °C 1021.9 hPa SW 17.2 km/h 31.7 km/h 84% 0.0 mm 0 W/m2
21:43 11.2 °C 8.6 °C 1022.2 hPa WSW 23.3 km/h 42.8 km/h 84% 0.0 mm 0 W/m2
21:48 11.2 °C 8.4 °C 1021.9 hPa SW 19.5 km/h 42.8 km/h 83% 0.0 mm 0 W/m2
21:53 11.2 °C 8.4 °C 1021.9 hPa SW 19.5 km/h 35.6 km/h 83% 0.0 mm 0 W/m2
21:58 11.2 °C 8.4 °C 1022.2 hPa SW 20.9 km/h 35.6 km/h 83% 0.0 mm 0 W/m2
22:03 11.2 °C 8.4 °C 1021.9 hPa SW 24.5 km/h 34.3 km/h 83% 0.0 mm 0 W/m2
22:08 11.1 °C 8.3 °C 1022.2 hPa SW 17.2 km/h 31.7 km/h 83% 0.0 mm 0 W/m2
22:13 11.1 °C 8.3 °C 1022.2 hPa SW 20.9 km/h 37.8 km/h 83% 0.0 mm 0 W/m2
22:18 11.1 °C 8.3 °C 1022.2 hPa SW 17.2 km/h 37.8 km/h 83% 0.0 mm 0 W/m2
22:23 11.2 °C 8.4 °C 1022.2 hPa SW 14.8 km/h 37.8 km/h 83% 0.0 mm 0 W/m2
22:28 11.2 °C 8.2 °C 1022.2 hPa SW 13.4 km/h 36.7 km/h 82% 0.0 mm 0 W/m2
22:33 11.2 °C 8.2 °C 1022.2 hPa SW 24.5 km/h 36.7 km/h 82% 0.0 mm 0 W/m2
22:38 11.2 °C 8.2 °C 1022.2 hPa SW 20.9 km/h 35.6 km/h 82% 0.0 mm 0 W/m2
22:43 11.2 °C 8.2 °C 1022.2 hPa West 23.3 km/h 34.3 km/h 82% 0.0 mm 0 W/m2
22:48 11.1 °C 8.2 °C 1022.2 hPa West 13.4 km/h 34.3 km/h 82% 0.0 mm 0 W/m2
22:53 11.0 °C 8.1 °C 1022.2 hPa WSW 18.3 km/h 33.1 km/h 82% 0.0 mm 0 W/m2
22:54 11.0 °C 8.1 °C 1022.2 hPa WSW 15.8 km/h 33.1 km/h 82% 0.0 mm 0 W/m2
23:14 11.0 °C 8.1 °C 1022.2 hPa SW 17.2 km/h 27.0 km/h 82% 0.0 mm 0 W/m2
23:19 11.1 °C 8.2 °C 1022.2 hPa SW 18.3 km/h 34.3 km/h 82% 0.0 mm 0 W/m2
23:24 11.2 °C 8.2 °C 1022.2 hPa WSW 14.8 km/h 39.3 km/h 82% 0.0 mm 0 W/m2
23:29 11.0 °C 7.9 °C 1022.2 hPa WSW 24.5 km/h 39.3 km/h 81% 0.0 mm 0 W/m2
23:35 11.0 °C 7.7 °C 1022.2 hPa WSW 14.8 km/h 34.3 km/h 80% 0.0 mm 0 W/m2
23:40 10.9 °C 8.1 °C 1022.2 hPa West 17.2 km/h 35.6 km/h 83% 0.0 mm 0 W/m2
23:45 11.0 °C 8.1 °C 1022.6 hPa WSW 17.2 km/h 35.6 km/h 82% 0.0 mm 0 W/m2
23:50 10.9 °C 8.1 °C 1022.2 hPa WSW 18.3 km/h 33.1 km/h 83% 0.0 mm 0 W/m2
23:55 10.9 °C 8.1 °C 1022.6 hPa WSW 12.2 km/h 33.1 km/h 83% 0.0 mm 0 W/m2
Northern Hawkes Bay. New Zealand Historic Data
Compliments of Weather Underground - 2 mb